Miami, Florida
Traffic Map
Current Weather Conditions
Miami, Florida
Broken Clouds
Broken Clouds
78°
Feels Like: 80°
Wind Chill: 78° Ceiling: 3400
Heat Index: 80° Visibility: 10mi
Dew Point: 64° Wind: 9mph
Humidity: 62% Direction: 70° (ENE)
Pressure: 30.08in Gusts: 0mph
Raw Report DataKMIA 281153Z 07008KT 10SM BKN034 BKN055 BKN300 26/18 A3008 RMK AO2 SLP185 70009 T02560178 10261 20244 51010
Traffic Incident Summary
Active as of:
Severity:
Category:
InformationThere was an issue retrieving the traffic information for this location. Please try a different location or try again shortly.
Advertisements
Track Severe Weather on mobile